createdAt,value
2022-10-06T00:00:04.764Z,0.00
2022-10-06T00:01:04.819Z,0.00
2022-10-06T00:02:04.752Z,0.00
2022-10-06T00:03:04.767Z,0.00
2022-10-06T00:04:04.724Z,0.00
2022-10-06T00:05:04.777Z,0.00
2022-10-06T00:06:04.724Z,0.00
2022-10-06T00:07:04.705Z,0.00
2022-10-06T00:08:04.708Z,0.00
2022-10-06T00:09:04.667Z,0.00
2022-10-06T00:10:04.659Z,0.00
2022-10-06T00:11:04.688Z,0.00
2022-10-06T00:12:04.640Z,0.00
2022-10-06T00:13:04.630Z,0.00
2022-10-06T00:14:04.610Z,0.00
2022-10-06T00:15:04.621Z,0.00
2022-10-06T00:16:04.660Z,0.00
2022-10-06T00:17:04.636Z,0.00
2022-10-06T00:18:04.572Z,0.00
2022-10-06T00:19:04.570Z,0.00
2022-10-06T00:20:04.593Z,0.00
2022-10-06T00:21:04.553Z,0.00
2022-10-06T00:22:04.540Z,0.00
2022-10-06T00:23:04.562Z,0.00
2022-10-06T00:24:04.545Z,0.00
2022-10-06T00:25:04.512Z,0.00
2022-10-06T00:26:04.493Z,0.00
2022-10-06T00:27:04.494Z,0.00
2022-10-06T00:28:04.507Z,0.00
2022-10-06T00:29:04.521Z,0.00
2022-10-06T00:30:04.485Z,0.00
2022-10-06T00:31:04.505Z,0.00
2022-10-06T00:32:04.434Z,0.00
2022-10-06T00:33:04.457Z,0.00
2022-10-06T00:34:04.407Z,0.00
2022-10-06T00:35:04.443Z,0.00
2022-10-06T00:36:04.385Z,0.00
2022-10-06T00:37:04.385Z,0.00
2022-10-06T00:38:04.387Z,0.00
2022-10-06T00:39:04.411Z,0.00
2022-10-06T00:40:04.346Z,0.00
2022-10-06T00:41:04.388Z,0.00
2022-10-06T00:42:04.335Z,0.00
2022-10-06T00:43:04.341Z,0.00
2022-10-06T00:44:04.307Z,0.00
2022-10-06T00:45:04.312Z,0.00
2022-10-06T00:46:04.307Z,0.00
2022-10-06T00:47:04.309Z,0.00
2022-10-06T00:48:04.261Z,0.00
2022-10-06T00:49:04.257Z,0.00
2022-10-06T00:50:04.261Z,0.00
2022-10-06T00:51:04.265Z,0.00
2022-10-06T00:52:04.256Z,0.00
2022-10-06T00:53:04.268Z,0.00
2022-10-06T00:54:04.224Z,0.00
2022-10-06T00:55:04.194Z,0.00
2022-10-06T00:56:04.183Z,0.00
2022-10-06T00:57:04.173Z,0.00
2022-10-06T00:58:04.184Z,0.00
2022-10-06T00:59:04.175Z,0.00
2022-10-06T01:00:04.150Z,0.00
2022-10-06T01:01:04.187Z,0.00
2022-10-06T01:02:04.123Z,0.00
2022-10-06T01:03:04.154Z,0.00
2022-10-06T01:04:04.188Z,0.00
2022-10-06T01:05:04.121Z,0.00
2022-10-06T01:06:04.095Z,0.00
2022-10-06T01:07:04.088Z,0.00
2022-10-06T01:08:04.063Z,0.00
2022-10-06T01:09:04.048Z,0.00
2022-10-06T01:10:04.047Z,0.00
2022-10-06T01:11:04.066Z,0.00
2022-10-06T01:12:04.024Z,0.00
2022-10-06T01:13:04.010Z,0.00
2022-10-06T01:14:03.987Z,0.00
2022-10-06T01:15:03.983Z,0.00
2022-10-06T01:16:04.041Z,0.00
2022-10-06T01:17:04.009Z,0.00
2022-10-06T01:18:03.957Z,0.00
2022-10-06T01:19:03.947Z,0.00
2022-10-06T01:20:03.953Z,0.00
2022-10-06T01:21:03.937Z,0.00
2022-10-06T01:22:03.911Z,0.00
2022-10-06T01:23:03.941Z,0.00
2022-10-06T01:24:03.890Z,0.00
2022-10-06T01:25:03.880Z,0.00
2022-10-06T01:26:03.896Z,0.00
2022-10-06T01:27:03.860Z,0.00
2022-10-06T01:28:03.899Z,0.00
2022-10-06T01:29:03.861Z,0.00
2022-10-06T01:30:03.831Z,0.00
2022-10-06T01:31:03.899Z,0.00
2022-10-06T01:32:03.823Z,0.00
2022-10-06T01:33:03.793Z,0.00
2022-10-06T01:34:03.803Z,0.00
2022-10-06T01:35:03.813Z,0.00
2022-10-06T01:36:03.773Z,0.00
2022-10-06T01:37:03.759Z,0.00
2022-10-06T01:38:03.748Z,0.00
2022-10-06T01:39:03.739Z,0.00
2022-10-06T01:40:03.725Z,0.00
2022-10-06T01:41:03.733Z,0.00
2022-10-06T01:42:03.696Z,0.00
2022-10-06T01:43:03.693Z,0.00
2022-10-06T01:44:03.680Z,0.00
2022-10-06T01:45:03.664Z,0.00
2022-10-06T01:46:03.733Z,0.00
2022-10-06T01:47:03.677Z,0.00
2022-10-06T01:48:03.650Z,0.00
2022-10-06T01:49:03.637Z,0.00
2022-10-06T01:50:03.620Z,0.00
2022-10-06T01:51:03.608Z,0.00
2022-10-06T01:52:03.657Z,0.00
2022-10-06T01:53:03.617Z,0.00
2022-10-06T01:54:03.569Z,0.00
2022-10-06T01:55:03.559Z,0.00
2022-10-06T01:56:03.547Z,0.00
2022-10-06T01:57:03.539Z,0.00
2022-10-06T01:58:03.528Z,0.00
2022-10-06T01:59:03.541Z,0.00
2022-10-06T02:00:03.511Z,0.00
2022-10-06T02:01:03.489Z,0.00
2022-10-06T02:02:03.581Z,0.00
2022-10-06T02:03:03.476Z,0.00
2022-10-06T02:04:03.539Z,0.00
2022-10-06T02:05:03.472Z,0.00
2022-10-06T02:06:03.497Z,0.00
2022-10-06T02:07:03.443Z,0.00
2022-10-06T02:08:03.424Z,0.00
2022-10-06T02:09:03.406Z,0.00
2022-10-06T02:10:03.393Z,0.00
2022-10-06T02:11:03.413Z,0.00
2022-10-06T02:12:03.381Z,0.00
2022-10-06T02:13:03.354Z,0.00
2022-10-06T02:14:03.355Z,0.00
2022-10-06T02:15:03.343Z,0.00
2022-10-06T02:16:03.376Z,0.00
2022-10-06T02:17:03.346Z,0.00
2022-10-06T02:18:03.313Z,0.00
2022-10-06T02:19:03.296Z,0.00
2022-10-06T02:20:03.285Z,0.00
2022-10-06T02:21:03.276Z,0.00
2022-10-06T02:22:03.277Z,0.00
2022-10-06T02:23:03.297Z,0.00
2022-10-06T02:24:03.249Z,0.00
2022-10-06T02:25:03.239Z,0.00
2022-10-06T02:26:03.228Z,0.00
2022-10-06T02:27:03.220Z,0.00
2022-10-06T02:28:03.240Z,0.00
2022-10-06T02:29:03.219Z,0.00
2022-10-06T02:30:03.187Z,0.00
2022-10-06T02:31:03.266Z,0.00
2022-10-06T02:32:03.169Z,0.00
2022-10-06T02:33:03.149Z,0.00
2022-10-06T02:34:03.140Z,0.00
2022-10-06T02:35:03.160Z,0.00
2022-10-06T02:36:03.122Z,0.00
2022-10-06T02:37:03.189Z,0.00
2022-10-06T02:38:03.093Z,0.00
2022-10-06T02:39:03.082Z,0.00
2022-10-06T02:40:03.073Z,0.00
2022-10-06T02:41:03.082Z,0.00
2022-10-06T02:42:03.061Z,0.00
2022-10-06T02:43:03.041Z,0.00
2022-10-06T02:44:03.034Z,0.00
2022-10-06T02:45:03.014Z,0.00
2022-10-06T02:46:03.061Z,0.00
2022-10-06T02:47:03.044Z,0.00
2022-10-06T02:48:02.993Z,0.00
2022-10-06T02:49:02.996Z,0.00
2022-10-06T02:50:02.965Z,0.00
2022-10-06T02:51:02.958Z,0.00
2022-10-06T02:52:02.996Z,0.00
2022-10-06T02:53:02.985Z,0.00
2022-10-06T02:54:02.929Z,0.00
2022-10-06T02:55:02.915Z,0.00
2022-10-06T02:56:02.908Z,0.00
2022-10-06T02:57:02.921Z,0.00
2022-10-06T02:58:02.885Z,0.00
2022-10-06T02:59:02.902Z,0.00
2022-10-06T03:00:02.867Z,0.00
2022-10-06T03:01:02.848Z,0.00
2022-10-06T03:02:03.012Z,0.00
2022-10-06T03:03:02.887Z,0.00
2022-10-06T03:04:02.821Z,0.00
2022-10-06T03:05:02.860Z,0.00
2022-10-06T03:06:02.802Z,0.00
2022-10-06T03:07:02.803Z,0.00
2022-10-06T03:08:02.777Z,0.00
2022-10-06T03:09:02.768Z,0.00
2022-10-06T03:10:02.752Z,0.00
2022-10-06T03:11:02.770Z,0.00
2022-10-06T03:12:02.781Z,0.00
2022-10-06T03:13:02.712Z,0.00
2022-10-06T03:14:02.719Z,0.00
2022-10-06T03:15:02.693Z,0.00
2022-10-06T03:16:02.728Z,0.00
2022-10-06T03:17:02.712Z,0.00
2022-10-06T03:18:02.664Z,0.00
2022-10-06T03:19:02.665Z,0.00
2022-10-06T03:20:02.656Z,0.00
2022-10-06T03:21:02.638Z,0.00
2022-10-06T03:22:02.644Z,0.00
2022-10-06T03:23:02.652Z,0.00
2022-10-06T03:24:02.616Z,0.00
2022-10-06T03:25:02.607Z,0.00
2022-10-06T03:26:02.585Z,0.00
2022-10-06T03:27:02.587Z,0.00
2022-10-06T03:28:02.600Z,0.00
2022-10-06T03:29:02.587Z,0.00
2022-10-06T03:30:02.546Z,0.00
2022-10-06T03:31:02.616Z,0.00
2022-10-06T03:32:02.528Z,0.00
2022-10-06T03:33:02.517Z,0.00
2022-10-06T03:34:02.510Z,0.00
2022-10-06T03:35:02.517Z,0.00
2022-10-06T03:36:02.493Z,0.00
2022-10-06T03:37:02.480Z,0.00
2022-10-06T03:38:02.470Z,0.00
2022-10-06T03:39:02.458Z,0.00
2022-10-06T03:40:02.453Z,0.00
2022-10-06T03:41:02.449Z,0.00
2022-10-06T03:42:02.427Z,0.00
2022-10-06T03:43:02.410Z,0.00
2022-10-06T03:44:02.409Z,0.00
2022-10-06T03:45:02.399Z,0.00
2022-10-06T03:46:02.384Z,0.00
2022-10-06T03:47:02.449Z,0.00
2022-10-06T03:48:02.368Z,0.00
2022-10-06T03:49:02.352Z,0.00
2022-10-06T03:50:02.365Z,0.00
2022-10-06T03:51:02.323Z,0.00
2022-10-06T03:52:02.315Z,0.00
2022-10-06T03:53:02.333Z,0.00
2022-10-06T03:54:02.295Z,0.00
2022-10-06T03:55:02.293Z,0.00
2022-10-06T03:56:02.274Z,0.00
2022-10-06T03:57:02.271Z,0.00
2022-10-06T03:58:02.263Z,0.00
2022-10-06T03:59:02.263Z,0.00
2022-10-06T04:00:02.234Z,0.00
2022-10-06T04:01:02.261Z,0.00
2022-10-06T04:02:02.288Z,0.00
2022-10-06T04:03:02.205Z,0.00
2022-10-06T04:04:02.198Z,0.00
2022-10-06T04:05:02.206Z,0.00
2022-10-06T04:06:02.184Z,0.00
2022-10-06T04:07:02.255Z,0.00
2022-10-06T04:08:02.157Z,0.00
2022-10-06T04:09:02.148Z,0.00
2022-10-06T04:10:02.129Z,0.00
2022-10-06T04:11:02.149Z,0.00
2022-10-06T04:12:02.115Z,0.00
2022-10-06T04:13:02.099Z,0.00
2022-10-06T04:14:02.091Z,0.00
2022-10-06T04:15:02.148Z,0.00
2022-10-06T04:16:02.116Z,0.00
2022-10-06T04:17:02.093Z,0.00
2022-10-06T04:18:02.048Z,0.00
2022-10-06T04:19:02.039Z,0.00
2022-10-06T04:20:02.030Z,0.00
2022-10-06T04:21:02.022Z,0.00
2022-10-06T04:22:02.020Z,0.00
2022-10-06T04:23:02.021Z,0.00
2022-10-06T04:24:01.992Z,0.00
2022-10-06T04:25:01.976Z,0.00
2022-10-06T04:26:01.975Z,0.00
2022-10-06T04:27:01.966Z,0.00
2022-10-06T04:28:02.003Z,0.00
2022-10-06T04:29:01.965Z,0.00
2022-10-06T04:30:01.937Z,0.00
2022-10-06T04:31:01.924Z,0.00
2022-10-06T04:32:02.084Z,0.00
2022-10-06T04:33:01.895Z,0.00
2022-10-06T04:34:01.885Z,0.00
2022-10-06T04:35:01.904Z,0.00
2022-10-06T04:36:01.865Z,0.00
2022-10-06T04:37:01.872Z,0.00
2022-10-06T04:38:01.848Z,0.00
2022-10-06T04:39:01.842Z,0.00
2022-10-06T04:40:01.827Z,0.00
2022-10-06T04:41:01.849Z,0.00
2022-10-06T04:42:01.809Z,0.00
2022-10-06T04:43:01.800Z,0.00
2022-10-06T04:44:01.797Z,0.00
2022-10-06T04:45:01.780Z,0.00
2022-10-06T04:46:13.037Z,0.00
2022-10-06T04:47:02.893Z,0.00
2022-10-06T04:48:01.748Z,0.00
2022-10-06T04:49:01.733Z,0.00
2022-10-06T04:50:01.731Z,0.00
2022-10-06T04:51:01.709Z,0.00
2022-10-06T04:52:01.709Z,0.00
2022-10-06T04:53:01.732Z,0.00
2022-10-06T04:54:01.691Z,0.00
2022-10-06T04:55:01.679Z,0.00
2022-10-06T04:56:01.671Z,0.00
2022-10-06T04:57:01.663Z,0.00
2022-10-06T04:58:01.612Z,0.00
2022-10-06T04:59:01.622Z,0.00
2022-10-06T05:00:06.770Z,0.00
2022-10-06T05:01:02.633Z,0.00
2022-10-06T05:02:01.666Z,0.00
2022-10-06T05:03:01.553Z,0.00
2022-10-06T05:04:01.535Z,0.00
2022-10-06T05:05:01.545Z,0.00
2022-10-06T05:06:01.514Z,0.00
2022-10-06T05:07:01.527Z,0.00
2022-10-06T05:08:01.491Z,0.00
2022-10-06T05:09:01.493Z,0.00
2022-10-06T05:10:01.474Z,0.00
2022-10-06T05:11:01.494Z,0.00
2022-10-06T05:12:01.455Z,0.00
2022-10-06T05:13:01.446Z,0.00
2022-10-06T05:14:01.435Z,0.00
2022-10-06T05:15:01.418Z,0.00
2022-10-06T05:16:01.475Z,0.00
2022-10-06T05:17:01.435Z,0.00
2022-10-06T05:18:01.387Z,0.00
2022-10-06T05:19:01.379Z,0.00
2022-10-06T05:20:01.378Z,0.00
2022-10-06T05:21:06.346Z,0.00
2022-10-06T05:22:02.378Z,0.00
2022-10-06T05:23:01.340Z,0.00
2022-10-06T05:24:01.329Z,0.00
2022-10-06T05:25:01.319Z,0.00
2022-10-06T05:26:01.309Z,0.00
2022-10-06T05:27:02.013Z,0.00
2022-10-06T05:28:01.399Z,0.00
2022-10-06T05:29:01.286Z,0.00
2022-10-06T05:30:01.284Z,0.00
2022-10-06T05:31:01.262Z,0.00
2022-10-06T05:32:01.271Z,0.00
2022-10-06T05:33:01.241Z,0.00
2022-10-06T05:34:01.252Z,0.00
2022-10-06T05:35:01.215Z,0.00
2022-10-06T05:36:01.209Z,0.00
2022-10-06T05:37:01.202Z,0.00
2022-10-06T05:38:01.191Z,0.00
2022-10-06T05:39:01.173Z,0.00
2022-10-06T05:40:01.193Z,0.00
2022-10-06T05:41:01.174Z,0.00
2022-10-06T05:42:01.141Z,0.00
2022-10-06T05:43:01.145Z,0.00
2022-10-06T05:44:01.125Z,0.00
2022-10-06T05:45:01.116Z,0.00
2022-10-06T05:46:01.157Z,0.00
2022-10-06T05:47:01.095Z,0.00
2022-10-06T05:48:01.083Z,0.00
2022-10-06T05:49:01.085Z,0.00
2022-10-06T05:50:01.076Z,0.00
2022-10-06T05:51:01.058Z,0.00
2022-10-06T05:52:01.069Z,0.00
2022-10-06T05:53:01.041Z,5.62
2022-10-06T05:54:01.022Z,5.62
2022-10-06T05:55:01.018Z,5.62
2022-10-06T05:56:00.998Z,5.62
2022-10-06T05:57:01.011Z,5.62
2022-10-06T05:58:00.999Z,5.62
2022-10-06T05:59:00.973Z,5.62
2022-10-06T06:00:00.948Z,5.62
2022-10-06T06:01:00.968Z,5.62
2022-10-06T06:02:01.051Z,5.62
2022-10-06T06:03:00.993Z,5.62
2022-10-06T06:04:00.960Z,5.62
2022-10-06T06:05:00.919Z,5.62
2022-10-06T06:06:00.898Z,5.62
2022-10-06T06:07:00.891Z,11.25
2022-10-06T06:08:00.872Z,11.25
2022-10-06T06:09:00.871Z,11.25
2022-10-06T06:10:00.872Z,11.25
2022-10-06T06:11:00.850Z,11.25
2022-10-06T06:12:00.862Z,11.25
2022-10-06T06:13:01.032Z,11.25
2022-10-06T06:14:00.812Z,11.25
2022-10-06T06:15:00.810Z,11.25
2022-10-06T06:16:00.825Z,16.88
2022-10-06T06:17:00.937Z,16.88
2022-10-06T06:18:00.785Z,16.88
2022-10-06T06:19:00.766Z,16.88
2022-10-06T06:20:00.826Z,16.88
2022-10-06T06:21:00.781Z,16.88
2022-10-06T06:22:00.773Z,16.88
2022-10-06T06:23:00.881Z,16.88
2022-10-06T06:24:00.713Z,16.88
2022-10-06T06:25:00.753Z,16.88
2022-10-06T06:26:02.545Z,16.88
2022-10-06T06:27:00.689Z,16.88
2022-10-06T06:28:00.798Z,16.88
2022-10-06T06:29:00.665Z,16.88
2022-10-06T06:30:00.648Z,22.50
2022-10-06T06:31:00.676Z,22.50
2022-10-06T06:32:00.617Z,22.50
2022-10-06T06:33:00.630Z,22.50
2022-10-06T06:34:00.628Z,22.50
2022-10-06T06:35:00.597Z,22.50
2022-10-06T06:36:00.623Z,22.50
2022-10-06T06:37:06.323Z,22.50
2022-10-06T06:38:01.567Z,22.50
2022-10-06T06:39:00.551Z,22.50
2022-10-06T06:40:00.570Z,22.50
2022-10-06T06:41:00.559Z,22.50
2022-10-06T06:42:00.526Z,22.50
2022-10-06T06:43:00.649Z,22.50
2022-10-06T06:44:00.501Z,22.50
2022-10-06T06:45:00.534Z,22.50
2022-10-06T06:46:00.560Z,22.50
2022-10-06T06:47:00.472Z,22.50
2022-10-06T06:48:00.458Z,22.50
2022-10-06T06:49:00.452Z,22.50
2022-10-06T06:50:00.440Z,22.50
2022-10-06T06:51:00.443Z,22.50
2022-10-06T06:52:00.443Z,22.50
2022-10-06T06:53:00.412Z,22.50
2022-10-06T06:54:00.393Z,28.12
2022-10-06T06:55:00.393Z,22.50
2022-10-06T06:56:00.381Z,28.12
2022-10-06T06:57:00.434Z,28.12
2022-10-06T06:58:00.385Z,22.50
2022-10-06T06:59:00.346Z,22.50
2022-10-06T07:00:00.337Z,28.12
2022-10-06T07:01:00.364Z,22.50
2022-10-06T07:02:00.353Z,22.50
2022-10-06T07:03:00.307Z,28.12
2022-10-06T07:04:00.325Z,28.12
2022-10-06T07:05:00.286Z,22.50
2022-10-06T07:06:00.276Z,28.12
2022-10-06T07:07:00.268Z,22.50
2022-10-06T07:08:00.248Z,28.12
2022-10-06T07:09:00.254Z,28.12
2022-10-06T07:10:00.274Z,28.12
2022-10-06T07:11:00.218Z,33.75
2022-10-06T07:12:00.208Z,28.12
2022-10-06T07:13:00.210Z,28.12
2022-10-06T07:14:00.190Z,28.12
2022-10-06T07:15:00.179Z,33.75
2022-10-06T07:16:00.234Z,33.75
2022-10-06T07:17:00.161Z,28.12
2022-10-06T07:18:00.146Z,33.75
2022-10-06T07:19:00.140Z,28.12
2022-10-06T07:20:00.125Z,28.12
2022-10-06T07:21:00.121Z,28.12
2022-10-06T07:22:00.130Z,28.12
2022-10-06T07:23:00.114Z,28.12
2022-10-06T07:24:00.090Z,28.12
2022-10-06T07:25:00.084Z,28.12
2022-10-06T07:26:00.063Z,28.12
2022-10-06T07:27:00.055Z,28.12
2022-10-06T07:28:00.133Z,28.12
2022-10-06T07:29:00.035Z,28.12
2022-10-06T07:30:00.024Z,22.50
2022-10-06T07:31:00.051Z,22.50
2022-10-06T07:32:00.007Z,22.50
2022-10-06T07:32:59.995Z,22.50
2022-10-06T07:34:00.005Z,28.12
2022-10-06T07:34:59.973Z,22.50
2022-10-06T07:35:59.961Z,22.50
2022-10-06T07:37:04.000Z,22.50
2022-10-06T07:38:00.943Z,22.50
2022-10-06T07:38:59.933Z,22.50
2022-10-06T07:39:59.947Z,22.50
2022-10-06T07:41:19.275Z,22.50
2022-10-06T07:42:00.901Z,22.50
2022-10-06T07:42:59.894Z,22.50
2022-10-06T07:44:00.907Z,22.50
2022-10-06T07:44:59.867Z,22.50
2022-10-06T07:45:59.940Z,22.50
2022-10-06T07:46:59.848Z,22.50
2022-10-06T07:47:59.834Z,28.12
2022-10-06T07:48:59.832Z,28.12
2022-10-06T07:49:59.808Z,28.12
2022-10-06T07:50:59.808Z,28.12
2022-10-06T07:51:59.826Z,28.12
2022-10-06T07:52:59.785Z,28.12
2022-10-06T07:53:59.769Z,28.12
2022-10-06T07:54:59.759Z,28.12
2022-10-06T07:55:59.751Z,33.75
2022-10-06T07:56:59.748Z,39.38
2022-10-06T07:57:59.762Z,45.00
2022-10-06T07:58:59.762Z,45.00
2022-10-06T08:00:03.081Z,45.00
2022-10-06T08:00:59.701Z,39.38
2022-10-06T08:01:59.756Z,33.75
2022-10-06T08:02:59.707Z,39.38
2022-10-06T08:03:59.702Z,39.38
2022-10-06T08:04:59.676Z,39.38
2022-10-06T08:05:59.651Z,28.12
2022-10-06T08:06:59.643Z,28.12
2022-10-06T08:07:59.631Z,28.12
2022-10-06T08:08:59.621Z,28.12
2022-10-06T08:09:59.634Z,28.12
2022-10-06T08:11:01.507Z,28.12
2022-10-06T08:11:59.605Z,28.12
2022-10-06T08:12:59.584Z,28.12
2022-10-06T08:13:59.566Z,28.12
2022-10-06T08:15:04.460Z,22.50
2022-10-06T08:16:01.047Z,22.50
2022-10-06T08:17:02.133Z,22.50
2022-10-06T08:18:00.092Z,22.50
2022-10-06T08:19:00.266Z,16.88
2022-10-06T08:20:00.010Z,16.88
2022-10-06T08:20:59.528Z,16.88
2022-10-06T08:22:04.525Z,16.88
2022-10-06T08:23:00.475Z,22.50
2022-10-06T08:23:59.460Z,22.50
2022-10-06T08:25:07.248Z,22.50
2022-10-06T08:26:00.448Z,28.12
2022-10-06T08:26:59.437Z,33.75
2022-10-06T08:27:59.474Z,33.75
2022-10-06T08:28:59.418Z,45.00
2022-10-06T08:29:59.412Z,33.75
2022-10-06T08:30:59.426Z,39.38
2022-10-06T08:31:59.568Z,39.38
2022-10-06T08:32:59.422Z,84.38
2022-10-06T08:33:59.392Z,67.50
2022-10-06T08:34:59.373Z,84.38
2022-10-06T08:35:59.350Z,78.75
2022-10-06T08:37:19.399Z,95.62
2022-10-06T08:38:00.340Z,50.62
2022-10-06T08:38:59.312Z,95.62
2022-10-06T08:39:59.345Z,56.25
2022-10-06T08:40:59.291Z,50.62
2022-10-06T08:41:59.274Z,45.00
2022-10-06T08:42:59.280Z,84.38
2022-10-06T08:43:59.265Z,78.75
2022-10-06T08:44:59.252Z,73.12
2022-10-06T08:45:59.274Z,50.62
2022-10-06T08:46:59.224Z,39.38
2022-10-06T08:47:59.225Z,78.75
2022-10-06T08:48:59.214Z,45.00
2022-10-06T08:49:59.519Z,56.25
2022-10-06T08:50:59.185Z,33.75
2022-10-06T08:51:59.208Z,50.62
2022-10-06T08:52:59.174Z,61.88
2022-10-06T08:53:59.299Z,50.62
2022-10-06T08:54:59.155Z,45.00
2022-10-06T08:55:59.139Z,50.62
2022-10-06T08:56:59.125Z,33.75
2022-10-06T08:57:59.199Z,28.12
2022-10-06T08:58:59.113Z,39.38
2022-10-06T08:59:59.147Z,28.12
2022-10-06T09:00:59.170Z,28.12
2022-10-06T09:01:59.146Z,39.38
2022-10-06T09:02:59.075Z,45.00
2022-10-06T09:03:59.079Z,45.00
2022-10-06T09:04:59.096Z,33.75
2022-10-06T09:05:59.028Z,50.62
2022-10-06T09:06:59.021Z,45.00
2022-10-06T09:07:59.019Z,45.00
2022-10-06T09:08:59.016Z,50.62
2022-10-06T09:09:59.022Z,50.62
2022-10-06T09:10:59.000Z,45.00
2022-10-06T09:11:58.972Z,33.75
2022-10-06T09:12:58.961Z,45.00
2022-10-06T09:13:58.949Z,50.62
2022-10-06T09:14:58.945Z,45.00
2022-10-06T09:15:59.025Z,28.12
2022-10-06T09:16:58.922Z,50.62
2022-10-06T09:17:58.929Z,45.00
2022-10-06T09:19:14.194Z,39.38
2022-10-06T09:19:59.903Z,50.62
2022-10-06T09:20:58.873Z,45.00
2022-10-06T09:21:58.906Z,50.62
2022-10-06T09:22:58.873Z,50.62
2022-10-06T09:23:58.844Z,45.00
2022-10-06T09:24:58.834Z,50.62
2022-10-06T09:25:58.817Z,33.75
2022-10-06T09:26:58.815Z,50.62
2022-10-06T09:27:58.888Z,50.62
2022-10-06T09:28:58.798Z,50.62
2022-10-06T09:29:59.009Z,50.62
2022-10-06T09:30:58.835Z,61.88
2022-10-06T09:31:58.884Z,61.88
2022-10-06T09:32:58.756Z,61.88
2022-10-06T09:33:58.777Z,61.88
2022-10-06T09:34:58.770Z,61.88
2022-10-06T09:35:58.720Z,61.88
2022-10-06T09:37:01.347Z,67.50
2022-10-06T09:37:58.702Z,67.50
2022-10-06T09:38:58.707Z,67.50
2022-10-06T09:39:59.091Z,73.12
2022-10-06T09:40:58.677Z,73.12
2022-10-06T09:41:58.667Z,73.12
2022-10-06T09:42:58.649Z,50.62
2022-10-06T09:43:58.649Z,56.25
2022-10-06T09:44:58.631Z,45.00
2022-10-06T09:45:58.747Z,45.00
2022-10-06T09:46:58.602Z,39.38
2022-10-06T09:47:58.603Z,33.75
2022-10-06T09:48:58.591Z,33.75
2022-10-06T09:49:58.760Z,33.75
2022-10-06T09:50:58.562Z,28.12
2022-10-06T09:51:58.798Z,28.12
2022-10-06T09:52:58.567Z,22.50
2022-10-06T09:53:58.542Z,22.50
2022-10-06T09:54:58.533Z,22.50
2022-10-06T09:55:58.521Z,22.50
2022-10-06T09:56:58.514Z,22.50
2022-10-06T09:57:58.537Z,28.12
2022-10-06T09:58:58.502Z,22.50
2022-10-06T09:59:59.061Z,22.50
2022-10-06T10:00:58.517Z,28.12
2022-10-06T10:01:58.466Z,33.75
2022-10-06T10:02:58.608Z,33.75
2022-10-06T10:04:59.433Z,39.38
2022-10-06T10:05:58.427Z,33.75
2022-10-06T10:06:58.409Z,33.75
2022-10-06T10:07:58.406Z,33.75
2022-10-06T10:08:58.386Z,33.75
2022-10-06T10:09:58.745Z,33.75
2022-10-06T10:10:58.367Z,50.62
2022-10-06T10:11:58.368Z,50.62
2022-10-06T10:12:58.348Z,50.62
2022-10-06T10:13:58.338Z,45.00
2022-10-06T10:14:58.328Z,39.38
2022-10-06T10:15:58.491Z,56.25
2022-10-06T10:16:58.317Z,45.00
2022-10-06T10:17:58.301Z,33.75
2022-10-06T10:18:58.289Z,56.25
2022-10-06T10:19:58.562Z,61.88
2022-10-06T10:20:58.264Z,45.00
2022-10-06T10:21:58.280Z,39.38
2022-10-06T10:22:58.244Z,39.38
2022-10-06T10:23:58.239Z,39.38
2022-10-06T10:24:58.222Z,39.38
2022-10-06T10:25:58.219Z,39.38
2022-10-06T10:26:58.206Z,39.38
2022-10-06T10:27:58.318Z,39.38
2022-10-06T10:28:58.184Z,39.38
2022-10-06T10:29:58.731Z,39.38
2022-10-06T10:30:58.198Z,45.00
2022-10-06T10:31:58.265Z,39.38
2022-10-06T10:32:58.143Z,28.12
2022-10-06T10:34:12.131Z,28.12
2022-10-06T10:34:59.414Z,28.12
2022-10-06T10:35:58.114Z,28.12
2022-10-06T10:36:58.105Z,28.12
2022-10-06T10:37:58.097Z,28.12
2022-10-06T10:38:58.076Z,28.12
2022-10-06T10:39:58.095Z,28.12
2022-10-06T10:40:58.055Z,28.12
2022-10-06T10:41:58.119Z,28.12
2022-10-06T10:42:58.039Z,28.12
2022-10-06T10:44:03.275Z,39.38
2022-10-06T10:44:59.333Z,56.25
2022-10-06T10:45:58.005Z,33.75
2022-10-06T10:46:58.046Z,33.75
2022-10-06T10:47:57.987Z,33.75
2022-10-06T10:48:57.968Z,33.75
2022-10-06T10:49:57.960Z,39.38
2022-10-06T10:50:57.992Z,39.38
2022-10-06T10:51:58.025Z,78.75
2022-10-06T10:52:57.927Z,67.50
2022-10-06T10:53:57.927Z,50.62
2022-10-06T10:54:58.176Z,56.25
2022-10-06T10:55:57.902Z,50.62
2022-10-06T10:56:57.911Z,67.50
2022-10-06T10:57:57.882Z,39.38
2022-10-06T10:58:57.862Z,45.00
2022-10-06T10:59:57.861Z,73.12
2022-10-06T11:00:57.897Z,73.12
2022-10-06T11:01:57.976Z,73.12
2022-10-06T11:02:57.856Z,73.12
2022-10-06T11:03:57.819Z,67.50
2022-10-06T11:04:58.185Z,67.50
2022-10-06T11:05:57.794Z,67.50
2022-10-06T11:06:57.783Z,50.62
2022-10-06T11:07:57.774Z,61.88
2022-10-06T11:08:57.795Z,61.88
2022-10-06T11:09:57.753Z,67.50
2022-10-06T11:10:57.735Z,61.88
2022-10-06T11:11:57.726Z,61.88
2022-10-06T11:12:57.724Z,61.88
2022-10-06T11:13:57.708Z,61.88
2022-10-06T11:14:58.018Z,67.50
2022-10-06T11:15:57.735Z,61.88
2022-10-06T11:16:57.668Z,61.88
2022-10-06T11:17:57.668Z,61.88
2022-10-06T11:18:57.657Z,56.25
2022-10-06T11:19:57.657Z,61.88
2022-10-06T11:20:57.659Z,67.50
2022-10-06T11:21:57.627Z,61.88
2022-10-06T11:22:57.609Z,61.88
2022-10-06T11:23:57.630Z,67.50
2022-10-06T11:24:58.107Z,67.50
2022-10-06T11:25:57.587Z,67.50
2022-10-06T11:26:57.618Z,39.38
2022-10-06T11:27:57.641Z,67.50
2022-10-06T11:28:57.557Z,33.75
2022-10-06T11:29:57.814Z,33.75
2022-10-06T11:30:57.531Z,28.12
2022-10-06T11:31:57.700Z,28.12
2022-10-06T11:32:57.543Z,73.12
2022-10-06T11:33:57.501Z,28.12
2022-10-06T11:34:57.493Z,33.75
2022-10-06T11:35:57.487Z,28.12
2022-10-06T11:36:57.477Z,84.38
2022-10-06T11:37:57.455Z,28.12
2022-10-06T11:38:57.474Z,28.12
2022-10-06T11:39:57.830Z,50.62
2022-10-06T11:40:57.432Z,50.62
2022-10-06T11:41:57.420Z,45.00
2022-10-06T11:42:57.405Z,33.75
2022-10-06T11:43:57.406Z,33.75
2022-10-06T11:44:57.741Z,45.00
2022-10-06T11:45:57.418Z,84.38
2022-10-06T11:46:57.366Z,84.38
2022-10-06T11:47:57.358Z,84.38
2022-10-06T11:48:57.349Z,84.38
2022-10-06T11:49:57.344Z,78.75
2022-10-06T11:50:57.357Z,39.38
2022-10-06T11:52:00.295Z,84.38
2022-10-06T11:52:57.297Z,84.38
2022-10-06T11:53:57.358Z,84.38
2022-10-06T11:54:57.650Z,28.12
2022-10-06T11:55:57.276Z,33.75
2022-10-06T11:56:57.300Z,28.12
2022-10-06T11:57:57.252Z,33.75
2022-10-06T11:58:57.251Z,84.38
2022-10-06T11:59:57.232Z,67.50
2022-10-06T12:00:57.228Z,33.75
2022-10-06T12:01:57.506Z,61.88
2022-10-06T12:02:57.371Z,78.75
2022-10-06T12:03:57.262Z,84.38
2022-10-06T12:04:57.487Z,84.38
2022-10-06T12:05:57.530Z,84.38
2022-10-06T12:06:57.162Z,84.38
2022-10-06T12:07:57.153Z,84.38
2022-10-06T12:08:57.167Z,84.38
2022-10-06T12:09:57.134Z,78.75
2022-10-06T12:10:57.124Z,78.75
2022-10-06T12:11:57.121Z,73.12
2022-10-06T12:13:06.675Z,33.75
2022-10-06T12:15:31.842Z,28.12
2022-10-06T12:17:19.044Z,67.50
2022-10-06T12:17:58.174Z,73.12
2022-10-06T12:18:57.036Z,73.12
2022-10-06T12:19:57.059Z,73.12
2022-10-06T12:20:57.015Z,78.75
2022-10-06T12:21:57.008Z,78.75
2022-10-06T12:22:56.994Z,73.12
2022-10-06T12:23:56.989Z,67.50
2022-10-06T12:24:57.331Z,67.50
2022-10-06T12:25:57.007Z,67.50
2022-10-06T12:26:56.958Z,67.50
2022-10-06T12:27:56.972Z,67.50
2022-10-06T12:28:56.939Z,61.88
2022-10-06T12:29:57.339Z,67.50
2022-10-06T12:30:56.964Z,67.50
2022-10-06T12:31:56.933Z,61.88
2022-10-06T12:32:56.890Z,67.50
2022-10-06T12:33:56.882Z,67.50
2022-10-06T12:34:57.170Z,67.50
2022-10-06T12:35:56.873Z,67.50
2022-10-06T12:36:56.852Z,56.25
2022-10-06T12:37:56.883Z,61.88
2022-10-06T12:38:56.832Z,50.62
2022-10-06T12:39:56.823Z,50.62
2022-10-06T12:40:56.812Z,50.62
2022-10-06T12:41:56.821Z,61.88
2022-10-06T12:42:56.784Z,61.88
2022-10-06T12:43:56.817Z,61.88
2022-10-06T12:44:57.069Z,61.88
2022-10-06T12:45:56.793Z,67.50
2022-10-06T12:46:56.747Z,50.62
2022-10-06T12:47:56.747Z,50.62
2022-10-06T12:48:56.726Z,61.88
2022-10-06T12:49:56.756Z,67.50
2022-10-06T12:50:56.706Z,67.50
2022-10-06T12:51:59.706Z,61.88
2022-10-06T12:52:57.684Z,67.50
2022-10-06T12:53:56.677Z,67.50
2022-10-06T12:54:56.873Z,56.25
2022-10-06T12:55:56.686Z,50.62
2022-10-06T12:56:56.646Z,56.25
2022-10-06T12:57:56.641Z,67.50
2022-10-06T12:58:56.619Z,67.50
2022-10-06T12:59:56.619Z,67.50
2022-10-06T13:00:56.670Z,67.50
2022-10-06T13:01:56.637Z,67.50
2022-10-06T13:02:56.587Z,67.50
2022-10-06T13:03:56.582Z,67.50
2022-10-06T13:04:56.843Z,61.88
2022-10-06T13:05:56.564Z,61.88
2022-10-06T13:06:56.542Z,61.88